createdAt,value
2023-02-19T00:01:36.398Z,19.24
2023-02-19T00:04:06.005Z,19.47
2023-02-19T00:06:34.198Z,19.40
2023-02-19T00:09:01.497Z,19.35
2023-02-19T00:11:30.652Z,19.43
2023-02-19T00:13:58.773Z,19.55
2023-02-19T00:16:34.992Z,19.76
2023-02-19T00:19:04.056Z,19.86
2023-02-19T00:21:31.107Z,19.72
2023-02-19T00:24:00.904Z,19.62
2023-02-19T00:26:28.261Z,19.54
2023-02-19T00:28:56.801Z,19.78
2023-02-19T00:31:26.393Z,19.99
2023-02-19T00:33:55.970Z,19.80
2023-02-19T00:36:23.570Z,19.34
2023-02-19T00:38:50.717Z,19.44
2023-02-19T00:41:19.372Z,19.57
2023-02-19T00:43:49.216Z,19.55
2023-02-19T00:46:18.230Z,19.68
2023-02-19T00:48:45.492Z,19.62
2023-02-19T00:51:12.657Z,19.77
2023-02-19T00:53:39.961Z,19.54
2023-02-19T00:56:07.844Z,19.45
2023-02-19T00:58:35.118Z,19.50
2023-02-19T01:01:02.382Z,19.71
2023-02-19T01:03:28.968Z,19.62
2023-02-19T01:05:55.758Z,19.84
2023-02-19T01:08:22.322Z,19.77
2023-02-19T01:10:49.553Z,19.82
2023-02-19T01:13:17.015Z,19.56
2023-02-19T01:15:44.037Z,19.53
2023-02-19T01:18:11.240Z,19.53
2023-02-19T01:20:40.591Z,19.56
2023-02-19T01:23:07.662Z,19.56
2023-02-19T01:25:34.480Z,19.67
2023-02-19T01:28:01.114Z,19.83
2023-02-19T01:30:27.851Z,19.60
2023-02-19T01:32:54.406Z,19.57
2023-02-19T01:35:21.121Z,19.58
2023-02-19T01:37:47.776Z,19.40
2023-02-19T01:40:14.416Z,19.56
2023-02-19T01:42:43.912Z,19.16
2023-02-19T01:45:28.418Z,19.07
2023-02-19T01:48:17.379Z,19.09
2023-02-19T01:51:04.510Z,19.01
2023-02-19T01:53:37.052Z,19.03
2023-02-19T01:56:05.220Z,19.11
2023-02-19T01:58:34.489Z,19.32
2023-02-19T02:01:04.423Z,19.12
2023-02-19T02:03:32.118Z,18.77
2023-02-19T02:06:07.177Z,18.73
2023-02-19T02:08:53.033Z,18.66
2023-02-19T02:11:21.469Z,18.58
2023-02-19T02:13:49.180Z,18.40
2023-02-19T02:16:41.572Z,18.52
2023-02-19T02:19:29.793Z,18.48
2023-02-19T02:22:23.994Z,18.45
2023-02-19T02:25:08.974Z,18.56
2023-02-19T02:28:16.948Z,18.57
2023-02-19T02:30:57.482Z,18.39
2023-02-19T02:33:44.364Z,18.58
2023-02-19T02:36:18.477Z,18.47
2023-02-19T02:38:47.157Z,18.45
2023-02-19T02:41:15.804Z,18.32
2023-02-19T02:43:42.938Z,18.28
2023-02-19T02:46:12.369Z,18.31
2023-02-19T02:48:42.241Z,18.24
2023-02-19T02:51:15.875Z,18.41
2023-02-19T02:54:08.001Z,18.39
2023-02-19T02:56:35.675Z,18.13
2023-02-19T02:59:05.847Z,18.15
2023-02-19T03:02:12.461Z,18.21
2023-02-19T03:04:59.081Z,18.17
2023-02-19T03:07:34.881Z,17.96
2023-02-19T03:10:02.786Z,18.27
2023-02-19T03:12:51.761Z,18.06
2023-02-19T03:15:38.031Z,18.25
2023-02-19T03:18:27.760Z,18.38
2023-02-19T03:20:58.194Z,18.60
2023-02-19T03:23:48.780Z,18.56
2023-02-19T03:26:19.044Z,18.41
2023-02-19T03:29:11.280Z,18.31
2023-02-19T03:31:43.390Z,18.34
2023-02-19T03:34:14.302Z,18.28
2023-02-19T03:36:45.793Z,17.99
2023-02-19T03:39:18.876Z,18.16
2023-02-19T03:41:48.747Z,18.31
2023-02-19T03:44:25.002Z,18.32
2023-02-19T03:47:10.030Z,18.26
2023-02-19T03:49:43.016Z,18.54
2023-02-19T03:52:18.697Z,18.73
2023-02-19T03:54:54.999Z,18.64
2023-02-19T03:57:45.295Z,18.52
2023-02-19T04:00:18.136Z,18.66
2023-02-19T04:02:54.107Z,18.37
2023-02-19T04:05:26.728Z,18.64
2023-02-19T04:08:00.459Z,18.12
2023-02-19T04:10:32.539Z,18.33
2023-02-19T04:13:06.227Z,18.33
2023-02-19T04:15:37.046Z,18.35
2023-02-19T04:18:11.171Z,18.24
2023-02-19T04:20:42.195Z,18.24
2023-02-19T04:23:09.356Z,18.28
2023-02-19T04:25:38.295Z,18.06
2023-02-19T04:28:05.201Z,18.06
2023-02-19T04:30:31.891Z,18.10
2023-02-19T04:32:58.568Z,18.16
2023-02-19T04:35:25.182Z,18.29
2023-02-19T04:37:51.798Z,18.39
2023-02-19T04:40:18.713Z,18.43
2023-02-19T04:42:45.438Z,18.41
2023-02-19T04:45:11.995Z,18.41
2023-02-19T04:47:38.709Z,18.57
2023-02-19T04:50:05.683Z,18.51
2023-02-19T04:52:33.249Z,18.42
2023-02-19T04:54:59.805Z,18.70
2023-02-19T04:57:26.452Z,18.56
2023-02-19T04:59:53.402Z,18.57
2023-02-19T05:02:20.062Z,18.71
2023-02-19T05:04:46.666Z,18.80
2023-02-19T05:07:13.585Z,19.07
2023-02-19T05:09:40.107Z,18.90
2023-02-19T05:12:06.955Z,19.15
2023-02-19T05:14:33.664Z,19.16
2023-02-19T05:17:00.355Z,19.11
2023-02-19T05:19:27.021Z,18.99
2023-02-19T05:21:53.658Z,18.89
2023-02-19T05:24:20.556Z,18.72
2023-02-19T05:26:48.277Z,18.73
2023-02-19T05:29:14.794Z,18.88
2023-02-19T05:31:41.801Z,18.91
2023-02-19T05:34:08.399Z,19.11
2023-02-19T05:36:37.026Z,19.08
2023-02-19T05:39:06.109Z,19.06
2023-02-19T05:41:32.845Z,19.23
2023-02-19T05:43:59.604Z,19.16
2023-02-19T05:46:29.979Z,18.87
2023-02-19T05:48:58.182Z,18.76
2023-02-19T05:51:26.451Z,19.05
2023-02-19T05:53:53.360Z,19.02
2023-02-19T05:56:26.074Z,18.96
2023-02-19T05:58:53.819Z,18.78
2023-02-19T06:01:23.293Z,19.04
2023-02-19T06:03:50.058Z,19.18
2023-02-19T06:06:18.962Z,19.45
2023-02-19T06:08:46.046Z,19.38
2023-02-19T06:11:12.767Z,19.13
2023-02-19T06:13:39.472Z,19.16
2023-02-19T06:16:07.753Z,19.11
2023-02-19T06:18:35.252Z,19.10
2023-02-19T06:21:05.741Z,18.92
2023-02-19T06:23:32.854Z,19.03
2023-02-19T06:26:15.935Z,19.10
2023-02-19T06:28:43.980Z,19.39
2023-02-19T06:31:11.760Z,19.46
2023-02-19T06:33:42.122Z,19.29
2023-02-19T06:36:12.903Z,19.13
2023-02-19T06:38:39.678Z,19.17
2023-02-19T06:41:07.718Z,18.99
2023-02-19T06:43:35.028Z,18.90
2023-02-19T06:46:03.805Z,18.69
2023-02-19T06:48:31.861Z,19.16
2023-02-19T06:50:59.143Z,18.95
2023-02-19T06:53:26.155Z,18.47
2023-02-19T06:56:29.425Z,18.44
2023-02-19T06:58:59.767Z,18.67
2023-02-19T07:01:27.484Z,18.95
2023-02-19T07:03:54.194Z,19.06
2023-02-19T07:06:23.197Z,18.93
2023-02-19T07:08:51.493Z,19.02
2023-02-19T07:11:18.766Z,18.94
2023-02-19T07:13:45.704Z,18.89
2023-02-19T07:16:13.319Z,18.96
2023-02-19T07:18:40.735Z,18.84
2023-02-19T07:21:11.053Z,18.72
2023-02-19T07:23:38.380Z,18.67
2023-02-19T07:26:08.310Z,18.51
2023-02-19T07:28:34.821Z,18.79
2023-02-19T07:31:02.704Z,18.59
2023-02-19T07:33:30.059Z,18.34
2023-02-19T07:35:57.068Z,18.21
2023-02-19T07:38:25.340Z,17.85
2023-02-19T07:40:53.820Z,17.96
2023-02-19T07:43:20.523Z,18.02
2023-02-19T07:45:47.286Z,17.69
2023-02-19T07:48:14.001Z,17.74
2023-02-19T07:50:40.781Z,17.78
2023-02-19T07:53:07.807Z,18.02
2023-02-19T07:55:34.939Z,18.08
2023-02-19T07:58:01.606Z,18.13
2023-02-19T08:00:28.247Z,18.09
2023-02-19T08:03:00.889Z,18.06
2023-02-19T08:05:28.823Z,18.12
2023-02-19T08:07:55.532Z,18.42
2023-02-19T08:10:41.685Z,18.32
2023-02-19T08:13:22.319Z,18.65
2023-02-19T08:16:21.864Z,18.60
2023-02-19T08:18:51.101Z,18.14
2023-02-19T08:21:21.120Z,18.27
2023-02-19T08:23:50.609Z,18.17
2023-02-19T08:26:18.431Z,18.12
2023-02-19T08:28:45.198Z,18.24
2023-02-19T08:31:12.623Z,18.14
2023-02-19T08:33:39.613Z,18.34
2023-02-19T08:36:08.339Z,18.41
2023-02-19T08:38:36.788Z,18.39
2023-02-19T08:41:08.097Z,18.40
2023-02-19T08:43:35.810Z,18.31
2023-02-19T08:46:03.101Z,18.51
2023-02-19T08:48:29.970Z,18.82
2023-02-19T08:50:58.915Z,18.73
2023-02-19T08:53:26.417Z,19.03
2023-02-19T08:55:53.280Z,19.24
2023-02-19T08:58:20.106Z,18.93
2023-02-19T09:00:47.391Z,18.69
2023-02-19T09:03:13.938Z,19.13
2023-02-19T09:05:40.953Z,19.35
2023-02-19T09:08:07.512Z,19.18
2023-02-19T09:10:34.137Z,19.41
2023-02-19T09:13:02.400Z,19.00
2023-02-19T09:15:29.701Z,19.19
2023-02-19T09:17:56.634Z,18.84
2023-02-19T09:20:24.293Z,18.90
2023-02-19T09:22:56.007Z,19.08
2023-02-19T09:25:22.618Z,19.17
2023-02-19T09:27:49.082Z,18.91
2023-02-19T09:30:15.791Z,18.93
2023-02-19T09:32:42.331Z,18.95
2023-02-19T09:35:08.871Z,19.09
2023-02-19T09:37:35.489Z,18.77
2023-02-19T09:40:02.096Z,18.87
2023-02-19T09:42:30.949Z,18.60
2023-02-19T09:44:59.772Z,18.61
2023-02-19T09:47:29.845Z,18.75
2023-02-19T09:50:02.566Z,19.03
2023-02-19T09:52:33.984Z,18.85
2023-02-19T09:55:15.537Z,18.87
2023-02-19T09:57:43.597Z,18.82
2023-02-19T10:00:25.898Z,19.30
2023-02-19T10:02:55.009Z,19.36
2023-02-19T10:05:24.413Z,19.23
2023-02-19T10:07:54.007Z,19.24
2023-02-19T10:10:35.264Z,19.29
2023-02-19T10:13:28.029Z,18.95
2023-02-19T10:15:58.581Z,19.06
2023-02-19T10:18:28.839Z,19.58
2023-02-19T10:20:56.792Z,19.77
2023-02-19T10:23:24.583Z,20.07
2023-02-19T10:26:01.052Z,19.97
2023-02-19T10:28:33.821Z,20.13
2023-02-19T10:31:04.108Z,19.81
2023-02-19T10:33:30.719Z,19.93
2023-02-19T10:36:16.061Z,20.19
2023-02-19T10:38:47.742Z,19.90
2023-02-19T10:41:17.687Z,19.81
2023-02-19T10:43:56.443Z,20.13
2023-02-19T10:46:29.705Z,20.04
2023-02-19T10:49:03.854Z,19.58
2023-02-19T10:51:39.539Z,19.48
2023-02-19T10:54:34.931Z,19.59
2023-02-19T10:57:20.941Z,19.63
2023-02-19T10:59:52.843Z,19.72
2023-02-19T11:02:21.268Z,19.77
2023-02-19T11:05:17.733Z,19.76
2023-02-19T11:07:54.821Z,19.78
2023-02-19T11:10:42.176Z,19.92
2023-02-19T11:13:16.245Z,20.23
2023-02-19T11:15:43.704Z,20.07
2023-02-19T11:18:13.363Z,19.93
2023-02-19T11:20:54.365Z,20.25
2023-02-19T11:23:24.868Z,20.19
2023-02-19T11:25:54.088Z,20.28
2023-02-19T11:28:43.410Z,20.22
2023-02-19T11:31:19.291Z,19.91
2023-02-19T11:33:53.604Z,20.02
2023-02-19T11:36:23.004Z,20.17
2023-02-19T11:38:49.688Z,19.68
2023-02-19T11:41:16.231Z,19.24
2023-02-19T11:44:16.622Z,19.32
2023-02-19T11:47:34.473Z,19.23
2023-02-19T11:50:22.841Z,19.17
2023-02-19T11:52:56.306Z,19.42
2023-02-19T11:55:43.132Z,19.64
2023-02-19T11:58:39.983Z,19.64
2023-02-19T12:01:22.809Z,19.51
2023-02-19T12:04:16.745Z,19.71
2023-02-19T12:07:02.106Z,19.19
2023-02-19T12:09:53.342Z,19.29
2023-02-19T12:12:41.684Z,18.90
2023-02-19T12:15:29.282Z,19.18
2023-02-19T12:18:34.684Z,19.18
2023-02-19T12:21:13.331Z,18.94
2023-02-19T12:23:48.876Z,18.84
2023-02-19T12:26:30.237Z,19.07
2023-02-19T12:29:34.486Z,19.21
2023-02-19T12:32:33.099Z,18.91
2023-02-19T12:35:02.872Z,19.11
2023-02-19T12:37:52.724Z,19.14
2023-02-19T12:40:44.653Z,18.85
2023-02-19T12:43:18.984Z,18.93
2023-02-19T12:45:49.324Z,19.19
2023-02-19T12:48:34.570Z,19.35
2023-02-19T12:51:10.702Z,19.12
2023-02-19T12:53:49.340Z,18.90
2023-02-19T12:56:21.787Z,19.05
2023-02-19T12:58:53.225Z,19.01
2023-02-19T13:01:26.223Z,18.98
2023-02-19T13:04:28.053Z,19.11
2023-02-19T13:07:05.921Z,19.11
2023-02-19T13:10:01.908Z,18.89
2023-02-19T13:12:44.153Z,18.97
2023-02-19T13:15:32.685Z,18.73
2023-02-19T13:18:02.709Z,19.04
2023-02-19T13:20:37.006Z,19.28
2023-02-19T13:23:41.036Z,19.35
2023-02-19T13:26:44.805Z,19.49
2023-02-19T13:29:21.406Z,19.61
2023-02-19T13:32:14.580Z,19.83
2023-02-19T13:35:23.627Z,19.72
2023-02-19T13:37:52.020Z,19.51
2023-02-19T13:40:24.602Z,19.32
2023-02-19T13:42:54.924Z,19.32
2023-02-19T13:45:32.884Z,19.59
2023-02-19T13:48:12.764Z,19.52
2023-02-19T13:50:39.591Z,19.53
2023-02-19T13:53:44.647Z,19.33
2023-02-19T13:56:29.552Z,19.42
2023-02-19T13:59:01.591Z,19.28
2023-02-19T14:01:55.004Z,18.91
2023-02-19T14:04:40.991Z,18.66
2023-02-19T14:07:07.849Z,18.94
2023-02-19T14:09:34.480Z,18.83
2023-02-19T14:12:18.424Z,19.03
2023-02-19T14:14:46.966Z,19.13
2023-02-19T14:21:50.922Z,18.54
2023-02-19T14:28:56.419Z,18.67
2023-02-19T14:31:29.335Z,18.69
2023-02-19T14:34:00.300Z,18.64
2023-02-19T14:36:30.062Z,18.78
2023-02-19T14:39:12.923Z,18.98
2023-02-19T14:41:45.001Z,18.92
2023-02-19T14:44:20.038Z,19.24
2023-02-19T14:47:15.925Z,19.22
2023-02-19T14:49:46.077Z,19.11
2023-02-19T14:52:26.572Z,19.13
2023-02-19T14:54:59.625Z,18.90
2023-02-19T14:57:40.164Z,18.73
2023-02-19T15:00:22.348Z,18.62
2023-02-19T15:02:51.376Z,18.50
2023-02-19T15:05:24.155Z,18.66
2023-02-19T15:07:53.718Z,19.00
2023-02-19T15:10:20.868Z,18.62
2023-02-19T15:13:01.180Z,18.45
2023-02-19T15:15:32.511Z,18.53
2023-02-19T15:18:02.239Z,18.88
2023-02-19T15:20:33.196Z,18.84
2023-02-19T15:23:01.353Z,18.98
2023-02-19T15:25:34.859Z,19.07
2023-02-19T15:28:23.434Z,18.95
2023-02-19T15:30:51.246Z,19.32
2023-02-19T15:33:20.229Z,19.42
2023-02-19T15:36:07.550Z,19.21
2023-02-19T15:38:34.897Z,19.27
2023-02-19T15:41:01.984Z,19.25
2023-02-19T15:43:32.053Z,19.34
2023-02-19T15:46:04.434Z,19.42
2023-02-19T15:48:38.697Z,19.52
2023-02-19T15:51:13.707Z,19.47
2023-02-19T15:53:58.652Z,19.44
2023-02-19T15:56:30.634Z,19.23
2023-02-19T15:59:04.380Z,19.68
2023-02-19T16:01:35.839Z,19.53
2023-02-19T16:04:03.525Z,19.49
2023-02-19T16:06:30.652Z,19.73
2023-02-19T16:09:03.672Z,19.75
2023-02-19T16:11:56.696Z,19.52
2023-02-19T16:14:37.135Z,19.64
2023-02-19T16:17:09.789Z,19.62
2023-02-19T16:19:47.505Z,19.28
2023-02-19T16:22:19.487Z,19.16
2023-02-19T16:24:49.784Z,19.26
2023-02-19T16:27:32.785Z,19.08
2023-02-19T16:30:07.007Z,19.07
2023-02-19T16:32:33.841Z,19.07
2023-02-19T16:35:00.393Z,19.19
2023-02-19T16:37:59.705Z,18.83
2023-02-19T16:40:44.934Z,18.77
2023-02-19T16:43:14.772Z,18.46
2023-02-19T16:45:42.675Z,18.70
2023-02-19T16:48:10.290Z,18.71
2023-02-19T16:50:41.380Z,18.58
2023-02-19T16:53:18.618Z,18.58
2023-02-19T16:55:45.340Z,18.73
2023-02-19T16:58:12.072Z,18.47
2023-02-19T17:00:38.671Z,18.59
2023-02-19T17:03:10.244Z,19.02
2023-02-19T17:05:38.776Z,18.87
2023-02-19T17:08:23.089Z,18.50
2023-02-19T17:10:50.329Z,18.80
2023-02-19T17:13:16.885Z,18.81
2023-02-19T17:15:43.499Z,18.85
2023-02-19T17:18:11.933Z,19.13
2023-02-19T17:20:40.363Z,18.92
2023-02-19T17:23:06.970Z,18.68
2023-02-19T17:25:33.654Z,18.73
2023-02-19T17:28:00.156Z,18.46
2023-02-19T17:30:32.512Z,18.73
2023-02-19T17:32:59.341Z,18.54
2023-02-19T17:35:26.279Z,18.46
2023-02-19T17:37:53.527Z,18.47
2023-02-19T17:40:38.310Z,18.45
2023-02-19T17:43:05.589Z,18.38
2023-02-19T17:45:32.911Z,18.38
2023-02-19T17:47:59.893Z,18.32
2023-02-19T17:50:30.103Z,18.20
2023-02-19T17:52:58.694Z,18.39
2023-02-19T17:55:26.554Z,18.28
2023-02-19T17:57:53.692Z,18.51
2023-02-19T18:00:26.656Z,18.52
2023-02-19T18:02:54.906Z,18.79
2023-02-19T18:05:22.756Z,19.06
2023-02-19T18:07:49.982Z,18.69
2023-02-19T18:10:18.793Z,17.95
2023-02-19T18:12:45.563Z,17.68
2023-02-19T18:15:21.625Z,17.57
2023-02-19T18:17:49.024Z,17.72
2023-02-19T18:20:28.743Z,17.56
2023-02-19T18:22:56.424Z,17.39
2023-02-19T18:29:59.859Z,16.95
2023-02-19T18:32:26.593Z,16.80
2023-02-19T18:34:56.740Z,16.64
2023-02-19T18:37:25.138Z,16.80
2023-02-19T18:39:53.102Z,16.98
2023-02-19T18:42:21.616Z,16.73
2023-02-19T18:44:49.042Z,16.77
2023-02-19T18:47:17.452Z,17.06
2023-02-19T18:49:52.009Z,17.21
2023-02-19T18:52:20.580Z,17.23
2023-02-19T18:54:48.242Z,17.29
2023-02-19T18:57:15.430Z,17.28
2023-02-19T18:59:43.207Z,17.26
2023-02-19T19:02:10.755Z,17.66
2023-02-19T19:04:38.964Z,17.18
2023-02-19T19:07:07.272Z,17.01
2023-02-19T19:09:34.266Z,17.04
2023-02-19T19:12:01.595Z,16.98
2023-02-19T19:14:28.263Z,16.92
2023-02-19T19:16:55.101Z,16.79
2023-02-19T19:19:21.732Z,17.00
2023-02-19T19:21:53.566Z,17.03
2023-02-19T19:24:22.292Z,17.01
2023-02-19T19:26:51.352Z,17.12
2023-02-19T19:29:20.364Z,16.97
2023-02-19T19:31:47.522Z,17.05
2023-02-19T19:34:14.552Z,17.07
2023-02-19T19:36:41.115Z,17.02
2023-02-19T19:39:09.012Z,16.97
2023-02-19T19:41:35.599Z,17.07
2023-02-19T19:44:04.456Z,17.01
2023-02-19T19:46:31.571Z,17.07
2023-02-19T19:48:58.210Z,17.02
2023-02-19T19:51:31.260Z,16.80
2023-02-19T19:53:58.331Z,16.86
2023-02-19T19:56:25.124Z,16.90
2023-02-19T19:58:51.758Z,16.95
2023-02-19T20:01:22.319Z,16.99
2023-02-19T20:03:50.997Z,17.05
2023-02-19T20:06:26.841Z,16.96
2023-02-19T20:08:53.531Z,17.08
2023-02-19T20:11:20.621Z,17.00
2023-02-19T20:13:47.371Z,17.13
2023-02-19T20:16:15.015Z,16.98
2023-02-19T20:18:41.872Z,16.84
2023-02-19T20:21:09.642Z,16.92
2023-02-19T20:23:39.386Z,17.15
2023-02-19T20:26:06.802Z,16.98
2023-02-19T20:28:33.697Z,17.18
2023-02-19T20:31:00.425Z,17.05
2023-02-19T20:33:27.435Z,17.04
2023-02-19T20:35:54.314Z,16.87
2023-02-19T20:38:21.014Z,16.99
2023-02-19T20:40:47.874Z,16.98
2023-02-19T20:43:14.491Z,17.18
2023-02-19T20:45:42.979Z,17.21
2023-02-19T20:48:09.702Z,17.04
2023-02-19T20:50:36.357Z,17.39
2023-02-19T20:53:03.029Z,17.35
2023-02-19T20:55:29.883Z,17.39
2023-02-19T20:57:56.785Z,17.15
2023-02-19T21:00:23.491Z,17.01
2023-02-19T21:02:50.184Z,16.90
2023-02-19T21:05:17.729Z,16.86
2023-02-19T21:07:44.650Z,16.79
2023-02-19T21:10:12.254Z,17.03
2023-02-19T21:12:39.034Z,17.16
2023-02-19T21:15:05.904Z,17.16
2023-02-19T21:17:32.478Z,17.10
2023-02-19T21:19:59.119Z,17.03
2023-02-19T21:22:25.708Z,16.84
2023-02-19T21:24:53.067Z,17.03
2023-02-19T21:27:20.510Z,16.81
2023-02-19T21:29:47.630Z,16.91
2023-02-19T21:32:14.415Z,16.88
2023-02-19T21:34:42.373Z,16.80
2023-02-19T21:37:09.029Z,16.87
2023-02-19T21:39:35.686Z,16.75
2023-02-19T21:42:02.555Z,16.84
2023-02-19T21:44:29.333Z,16.84
2023-02-19T21:46:58.185Z,16.96
2023-02-19T21:49:24.797Z,17.00
2023-02-19T21:51:52.214Z,16.80
2023-02-19T21:54:21.929Z,16.88
2023-02-19T21:56:48.740Z,16.82
2023-02-19T21:59:15.811Z,16.64
2023-02-19T22:01:43.536Z,16.81
2023-02-19T22:04:20.098Z,17.02
2023-02-19T22:06:47.214Z,17.22
2023-02-19T22:09:14.509Z,17.10
2023-02-19T22:11:41.584Z,16.66
2023-02-19T22:14:08.828Z,16.73
2023-02-19T22:16:35.436Z,16.53
2023-02-19T22:19:02.133Z,16.60
2023-02-19T22:21:32.413Z,16.53
2023-02-19T22:24:00.347Z,16.57
2023-02-19T22:26:32.361Z,16.68
2023-02-19T22:28:59.650Z,16.68
2023-02-19T22:31:28.170Z,16.47
2023-02-19T22:33:56.210Z,16.27
2023-02-19T22:36:26.024Z,16.10
2023-02-19T22:38:52.845Z,16.14
2023-02-19T22:41:20.854Z,16.27
2023-02-19T22:43:48.107Z,16.22
2023-02-19T22:46:17.580Z,15.87
2023-02-19T22:48:44.542Z,15.82
2023-02-19T22:51:17.500Z,15.75
2023-02-19T22:53:45.117Z,15.73
2023-02-19T22:56:13.292Z,15.63
2023-02-19T22:58:41.036Z,15.73
2023-02-19T23:01:08.109Z,15.77
2023-02-19T23:03:34.822Z,16.10
2023-02-19T23:06:04.867Z,16.15
2023-02-19T23:08:31.423Z,16.10
2023-02-19T23:10:57.942Z,16.11
2023-02-19T23:13:24.493Z,16.14
2023-02-19T23:15:51.046Z,16.16
2023-02-19T23:18:17.578Z,16.44
2023-02-19T23:20:44.193Z,16.68
2023-02-19T23:23:10.922Z,16.60
2023-02-19T23:25:37.472Z,16.59
2023-02-19T23:28:04.366Z,16.62
2023-02-19T23:30:31.111Z,16.64
2023-02-19T23:32:57.858Z,16.55
2023-02-19T23:35:24.429Z,16.65
2023-02-19T23:37:50.992Z,16.52
2023-02-19T23:40:18.935Z,16.56
2023-02-19T23:42:45.507Z,16.76
2023-02-19T23:45:12.260Z,16.88
2023-02-19T23:47:38.898Z,17.11
2023-02-19T23:50:05.930Z,16.98
2023-02-19T23:52:32.562Z,17.13
2023-02-19T23:54:59.102Z,17.27
2023-02-19T23:57:25.650Z,17.21
2023-02-19T23:59:52.310Z,17.29
